sensor_id;sensor_type;location;lat;lon;timestamp;P1;durP1;ratioP1;P2;durP2;ratioP2
58669;SDS011;44439;47.924;10.198;2023-03-29T00:01:25;2.05;;;1.25;;
58669;SDS011;44439;47.924;10.198;2023-03-29T00:04:15;1.70;;;1.30;;
58669;SDS011;44439;47.924;10.198;2023-03-29T00:07:03;1.58;;;1.00;;
58669;SDS011;44439;47.924;10.198;2023-03-29T00:09:50;2.05;;;1.10;;
58669;SDS011;44439;47.924;10.198;2023-03-29T00:12:36;1.90;;;1.30;;
58669;SDS011;44439;47.924;10.198;2023-03-29T00:15:23;1.48;;;1.10;;
58669;SDS011;44439;47.924;10.198;2023-03-29T00:18:09;1.95;;;1.40;;
58669;SDS011;44439;47.924;10.198;2023-03-29T00:20:56;1.73;;;1.10;;
58669;SDS011;44439;47.924;10.198;2023-03-29T00:23:42;4.43;;;1.40;;
58669;SDS011;44439;47.924;10.198;2023-03-29T00:26:28;1.85;;;1.30;;
58669;SDS011;44439;47.924;10.198;2023-03-29T00:29:14;2.08;;;1.20;;
58669;SDS011;44439;47.924;10.198;2023-03-29T00:31:59;1.67;;;1.20;;
58669;SDS011;44439;47.924;10.198;2023-03-29T00:34:45;2.70;;;1.30;;
58669;SDS011;44439;47.924;10.198;2023-03-29T00:37:35;3.97;;;1.50;;
58669;SDS011;44439;47.924;10.198;2023-03-29T00:40:22;1.63;;;1.30;;
58669;SDS011;44439;47.924;10.198;2023-03-29T00:43:14;3.78;;;1.35;;
58669;SDS011;44439;47.924;10.198;2023-03-29T00:46:00;1.48;;;1.30;;
58669;SDS011;44439;47.924;10.198;2023-03-29T00:48:45;1.85;;;1.30;;
58669;SDS011;44439;47.924;10.198;2023-03-29T00:51:32;1.67;;;1.23;;
58669;SDS011;44439;47.924;10.198;2023-03-29T00:54:19;2.08;;;1.35;;
58669;SDS011;44439;47.924;10.198;2023-03-29T00:57:05;2.05;;;1.30;;
58669;SDS011;44439;47.924;10.198;2023-03-29T00:59:53;1.92;;;1.00;;
58669;SDS011;44439;47.924;10.198;2023-03-29T01:02:40;2.60;;;1.13;;
58669;SDS011;44439;47.924;10.198;2023-03-29T01:05:34;2.67;;;1.10;;
58669;SDS011;44439;47.924;10.198;2023-03-29T01:08:31;1.05;;;0.95;;
58669;SDS011;44439;47.924;10.198;2023-03-29T01:11:28;1.33;;;1.00;;
58669;SDS011;44439;47.924;10.198;2023-03-29T01:17:24;0.90;;;0.82;;
58669;SDS011;44439;47.924;10.198;2023-03-29T01:20:12;2.25;;;1.10;;
58669;SDS011;44439;47.924;10.198;2023-03-29T01:23:20;2.50;;;0.75;;
58669;SDS011;44439;47.924;10.198;2023-03-29T01:29:14;1.05;;;0.70;;
58669;SDS011;44439;47.924;10.198;2023-03-29T01:32:06;1.08;;;0.80;;
58669;SDS011;44439;47.924;10.198;2023-03-29T01:35:02;1.05;;;0.68;;
58669;SDS011;44439;47.924;10.198;2023-03-29T01:37:57;1.48;;;0.60;;
58669;SDS011;44439;47.924;10.198;2023-03-29T01:40:49;1.38;;;0.63;;
58669;SDS011;44439;47.924;10.198;2023-03-29T01:43:36;1.30;;;0.77;;
58669;SDS011;44439;47.924;10.198;2023-03-29T01:46:33;0.77;;;0.70;;
58669;SDS011;44439;47.924;10.198;2023-03-29T01:49:26;1.02;;;0.60;;
58669;SDS011;44439;47.924;10.198;2023-03-29T01:52:21;0.90;;;0.60;;
58669;SDS011;44439;47.924;10.198;2023-03-29T01:55:24;3.33;;;0.70;;
58669;SDS011;44439;47.924;10.198;2023-03-29T01:58:13;1.48;;;0.77;;
58669;SDS011;44439;47.924;10.198;2023-03-29T02:01:00;0.60;;;0.60;;
58669;SDS011;44439;47.924;10.198;2023-03-29T02:03:50;0.50;;;0.40;;
58669;SDS011;44439;47.924;10.198;2023-03-29T02:06:38;1.63;;;0.70;;
58669;SDS011;44439;47.924;10.198;2023-03-29T02:09:25;0.82;;;0.70;;
58669;SDS011;44439;47.924;10.198;2023-03-29T02:12:13;1.40;;;0.65;;
58669;SDS011;44439;47.924;10.198;2023-03-29T02:15:00;1.05;;;0.73;;
58669;SDS011;44439;47.924;10.198;2023-03-29T02:17:47;0.50;;;0.40;;
58669;SDS011;44439;47.924;10.198;2023-03-29T02:20:38;1.42;;;0.50;;
58669;SDS011;44439;47.924;10.198;2023-03-29T02:23:39;1.63;;;0.68;;
58669;SDS011;44439;47.924;10.198;2023-03-29T02:26:25;1.60;;;0.50;;
58669;SDS011;44439;47.924;10.198;2023-03-29T02:29:13;0.98;;;0.40;;
58669;SDS011;44439;47.924;10.198;2023-03-29T02:32:04;2.35;;;0.55;;
58669;SDS011;44439;47.924;10.198;2023-03-29T02:34:59;0.95;;;0.40;;
58669;SDS011;44439;47.924;10.198;2023-03-29T02:37:49;2.25;;;0.57;;
58669;SDS011;44439;47.924;10.198;2023-03-29T02:40:39;3.80;;;0.55;;
58669;SDS011;44439;47.924;10.198;2023-03-29T02:43:26;1.30;;;0.68;;
58669;SDS011;44439;47.924;10.198;2023-03-29T02:46:13;1.30;;;0.60;;
58669;SDS011;44439;47.924;10.198;2023-03-29T02:48:59;1.10;;;0.45;;
58669;SDS011;44439;47.924;10.198;2023-03-29T02:51:45;1.02;;;0.68;;
58669;SDS011;44439;47.924;10.198;2023-03-29T02:54:38;1.30;;;0.50;;
58669;SDS011;44439;47.924;10.198;2023-03-29T02:57:30;1.25;;;0.50;;
58669;SDS011;44439;47.924;10.198;2023-03-29T03:00:20;1.48;;;0.60;;
58669;SDS011;44439;47.924;10.198;2023-03-29T03:03:10;1.83;;;0.60;;
58669;SDS011;44439;47.924;10.198;2023-03-29T03:06:00;1.38;;;0.63;;
58669;SDS011;44439;47.924;10.198;2023-03-29T03:08:49;0.50;;;0.43;;
58669;SDS011;44439;47.924;10.198;2023-03-29T03:11:35;1.73;;;0.60;;
58669;SDS011;44439;47.924;10.198;2023-03-29T03:14:21;3.03;;;0.80;;
58669;SDS011;44439;47.924;10.198;2023-03-29T03:17:07;1.70;;;0.90;;
58669;SDS011;44439;47.924;10.198;2023-03-29T03:19:52;0.65;;;0.50;;
58669;SDS011;44439;47.924;10.198;2023-03-29T03:22:39;1.10;;;0.70;;
58669;SDS011;44439;47.924;10.198;2023-03-29T03:25:26;0.90;;;0.70;;
58669;SDS011;44439;47.924;10.198;2023-03-29T03:28:12;2.20;;;0.70;;
58669;SDS011;44439;47.924;10.198;2023-03-29T03:30:58;0.75;;;0.47;;
58669;SDS011;44439;47.924;10.198;2023-03-29T03:33:46;0.73;;;0.50;;
58669;SDS011;44439;47.924;10.198;2023-03-29T03:36:33;1.45;;;0.60;;
58669;SDS011;44439;47.924;10.198;2023-03-29T03:39:19;3.40;;;0.80;;
58669;SDS011;44439;47.924;10.198;2023-03-29T03:42:04;1.17;;;0.90;;
58669;SDS011;44439;47.924;10.198;2023-03-29T03:44:50;0.93;;;0.70;;
58669;SDS011;44439;47.924;10.198;2023-03-29T03:47:36;1.73;;;0.85;;
58669;SDS011;44439;47.924;10.198;2023-03-29T03:50:22;2.25;;;0.60;;
58669;SDS011;44439;47.924;10.198;2023-03-29T03:53:08;1.73;;;0.60;;
58669;SDS011;44439;47.924;10.198;2023-03-29T03:55:54;1.33;;;0.60;;
58669;SDS011;44439;47.924;10.198;2023-03-29T03:58:42;0.65;;;0.52;;
58669;SDS011;44439;47.924;10.198;2023-03-29T04:01:28;0.65;;;0.60;;
58669;SDS011;44439;47.924;10.198;2023-03-29T04:04:14;3.95;;;0.82;;
58669;SDS011;44439;47.924;10.198;2023-03-29T04:07:00;1.23;;;0.70;;
58669;SDS011;44439;47.924;10.198;2023-03-29T04:09:47;1.05;;;0.55;;
58669;SDS011;44439;47.924;10.198;2023-03-29T04:12:33;0.90;;;0.50;;
58669;SDS011;44439;47.924;10.198;2023-03-29T04:15:20;1.58;;;0.60;;
58669;SDS011;44439;47.924;10.198;2023-03-29T04:18:05;1.77;;;0.75;;
58669;SDS011;44439;47.924;10.198;2023-03-29T04:20:51;1.77;;;1.15;;
58669;SDS011;44439;47.924;10.198;2023-03-29T04:23:37;2.95;;;1.20;;
58669;SDS011;44439;47.924;10.198;2023-03-29T04:26:23;1.65;;;1.45;;
58669;SDS011;44439;47.924;10.198;2023-03-29T04:29:08;2.83;;;1.17;;
58669;SDS011;44439;47.924;10.198;2023-03-29T04:31:54;2.80;;;0.77;;
58669;SDS011;44439;47.924;10.198;2023-03-29T04:34:40;0.85;;;0.77;;
58669;SDS011;44439;47.924;10.198;2023-03-29T04:37:26;2.42;;;1.10;;
58669;SDS011;44439;47.924;10.198;2023-03-29T04:40:13;1.08;;;0.80;;
58669;SDS011;44439;47.924;10.198;2023-03-29T04:42:59;0.98;;;0.70;;
58669;SDS011;44439;47.924;10.198;2023-03-29T04:45:45;2.28;;;1.00;;
58669;SDS011;44439;47.924;10.198;2023-03-29T04:48:31;3.15;;;1.60;;
58669;SDS011;44439;47.924;10.198;2023-03-29T04:51:20;3.83;;;2.47;;
58669;SDS011;44439;47.924;10.198;2023-03-29T04:54:08;4.47;;;3.10;;
58669;SDS011;44439;47.924;10.198;2023-03-29T04:56:54;4.13;;;1.73;;
58669;SDS011;44439;47.924;10.198;2023-03-29T04:59:40;4.35;;;2.05;;
58669;SDS011;44439;47.924;10.198;2023-03-29T05:02:26;2.10;;;0.80;;
58669;SDS011;44439;47.924;10.198;2023-03-29T05:05:12;2.97;;;1.30;;
58669;SDS011;44439;47.924;10.198;2023-03-29T05:07:58;1.98;;;1.20;;
58669;SDS011;44439;47.924;10.198;2023-03-29T05:10:44;1.83;;;1.13;;
58669;SDS011;44439;47.924;10.198;2023-03-29T05:13:29;3.30;;;1.90;;
58669;SDS011;44439;47.924;10.198;2023-03-29T05:16:15;2.45;;;0.80;;
58669;SDS011;44439;47.924;10.198;2023-03-29T05:19:01;1.75;;;0.85;;
58669;SDS011;44439;47.924;10.198;2023-03-29T05:21:47;2.70;;;0.80;;
58669;SDS011;44439;47.924;10.198;2023-03-29T05:24:34;3.22;;;1.35;;
58669;SDS011;44439;47.924;10.198;2023-03-29T05:27:20;3.38;;;1.40;;
58669;SDS011;44439;47.924;10.198;2023-03-29T05:30:07;3.58;;;1.20;;
58669;SDS011;44439;47.924;10.198;2023-03-29T05:32:53;1.73;;;0.90;;
58669;SDS011;44439;47.924;10.198;2023-03-29T05:35:39;1.83;;;0.95;;
58669;SDS011;44439;47.924;10.198;2023-03-29T05:38:25;2.38;;;0.80;;
58669;SDS011;44439;47.924;10.198;2023-03-29T05:41:10;1.35;;;0.82;;
58669;SDS011;44439;47.924;10.198;2023-03-29T05:43:57;1.95;;;1.00;;
58669;SDS011;44439;47.924;10.198;2023-03-29T05:46:42;2.97;;;1.30;;
58669;SDS011;44439;47.924;10.198;2023-03-29T05:49:28;2.60;;;1.25;;
58669;SDS011;44439;47.924;10.198;2023-03-29T05:52:13;3.38;;;1.27;;
58669;SDS011;44439;47.924;10.198;2023-03-29T05:54:59;2.45;;;0.77;;
58669;SDS011;44439;47.924;10.198;2023-03-29T05:57:45;0.98;;;0.70;;
58669;SDS011;44439;47.924;10.198;2023-03-29T06:00:31;5.50;;;1.20;;
58669;SDS011;44439;47.924;10.198;2023-03-29T06:03:22;1.35;;;1.08;;
58669;SDS011;44439;47.924;10.198;2023-03-29T06:08:59;1.60;;;0.90;;
58669;SDS011;44439;47.924;10.198;2023-03-29T06:11:45;1.85;;;1.30;;
58669;SDS011;44439;47.924;10.198;2023-03-29T06:14:31;3.28;;;1.20;;
58669;SDS011;44439;47.924;10.198;2023-03-29T06:17:18;3.03;;;1.40;;
58669;SDS011;44439;47.924;10.198;2023-03-29T06:20:04;4.88;;;1.48;;
58669;SDS011;44439;47.924;10.198;2023-03-29T06:22:54;7.80;;;3.22;;
58669;SDS011;44439;47.924;10.198;2023-03-29T06:25:40;1.48;;;1.00;;
58669;SDS011;44439;47.924;10.198;2023-03-29T06:28:27;3.17;;;1.55;;
58669;SDS011;44439;47.924;10.198;2023-03-29T06:31:13;8.63;;;6.35;;
58669;SDS011;44439;47.924;10.198;2023-03-29T06:33:58;5.40;;;2.47;;
58669;SDS011;44439;47.924;10.198;2023-03-29T06:36:45;5.30;;;2.40;;
58669;SDS011;44439;47.924;10.198;2023-03-29T06:39:31;3.80;;;1.73;;
58669;SDS011;44439;47.924;10.198;2023-03-29T06:42:18;2.90;;;1.40;;
58669;SDS011;44439;47.924;10.198;2023-03-29T06:45:04;4.15;;;2.30;;
58669;SDS011;44439;47.924;10.198;2023-03-29T06:47:50;1.75;;;0.82;;
58669;SDS011;44439;47.924;10.198;2023-03-29T06:50:36;6.53;;;2.40;;
58669;SDS011;44439;47.924;10.198;2023-03-29T06:53:22;3.20;;;1.23;;
58669;SDS011;44439;47.924;10.198;2023-03-29T06:56:08;1.70;;;0.85;;
58669;SDS011;44439;47.924;10.198;2023-03-29T06:58:58;3.78;;;0.95;;
58669;SDS011;44439;47.924;10.198;2023-03-29T07:01:44;2.13;;;0.63;;
58669;SDS011;44439;47.924;10.198;2023-03-29T07:04:31;3.35;;;0.90;;
58669;SDS011;44439;47.924;10.198;2023-03-29T07:07:17;4.32;;;0.90;;
58669;SDS011;44439;47.924;10.198;2023-03-29T07:10:06;4.47;;;1.30;;
58669;SDS011;44439;47.924;10.198;2023-03-29T07:12:53;2.72;;;1.00;;
58669;SDS011;44439;47.924;10.198;2023-03-29T07:15:41;3.45;;;1.25;;
58669;SDS011;44439;47.924;10.198;2023-03-29T07:18:27;1.67;;;0.90;;
58669;SDS011;44439;47.924;10.198;2023-03-29T07:21:13;2.55;;;1.20;;
58669;SDS011;44439;47.924;10.198;2023-03-29T07:23:59;1.60;;;0.77;;
58669;SDS011;44439;47.924;10.198;2023-03-29T07:26:45;3.40;;;0.95;;
58669;SDS011;44439;47.924;10.198;2023-03-29T07:29:33;0.85;;;0.60;;
58669;SDS011;44439;47.924;10.198;2023-03-29T07:32:18;1.35;;;0.85;;
58669;SDS011;44439;47.924;10.198;2023-03-29T07:35:04;1.33;;;1.00;;
58669;SDS011;44439;47.924;10.198;2023-03-29T07:37:51;1.30;;;0.90;;
58669;SDS011;44439;47.924;10.198;2023-03-29T07:40:39;1.83;;;0.90;;
58669;SDS011;44439;47.924;10.198;2023-03-29T07:43:25;1.60;;;0.98;;
58669;SDS011;44439;47.924;10.198;2023-03-29T07:46:10;4.57;;;1.10;;
58669;SDS011;44439;47.924;10.198;2023-03-29T07:48:56;1.55;;;0.95;;
58669;SDS011;44439;47.924;10.198;2023-03-29T07:51:42;3.92;;;1.10;;
58669;SDS011;44439;47.924;10.198;2023-03-29T07:54:28;5.45;;;1.08;;
58669;SDS011;44439;47.924;10.198;2023-03-29T07:57:16;1.48;;;0.70;;
58669;SDS011;44439;47.924;10.198;2023-03-29T08:00:02;2.22;;;0.70;;
58669;SDS011;44439;47.924;10.198;2023-03-29T08:03:14;4.70;;;1.10;;
58669;SDS011;44439;47.924;10.198;2023-03-29T08:06:01;2.30;;;0.85;;
58669;SDS011;44439;47.924;10.198;2023-03-29T08:08:47;3.20;;;1.45;;
58669;SDS011;44439;47.924;10.198;2023-03-29T08:11:33;3.45;;;1.25;;
58669;SDS011;44439;47.924;10.198;2023-03-29T08:14:18;2.63;;;1.02;;
58669;SDS011;44439;47.924;10.198;2023-03-29T08:17:06;1.95;;;1.08;;
58669;SDS011;44439;47.924;10.198;2023-03-29T08:19:51;4.75;;;1.50;;
58669;SDS011;44439;47.924;10.198;2023-03-29T08:22:37;2.28;;;1.40;;
58669;SDS011;44439;47.924;10.198;2023-03-29T08:25:24;2.50;;;0.93;;
58669;SDS011;44439;47.924;10.198;2023-03-29T08:28:11;1.75;;;0.80;;
58669;SDS011;44439;47.924;10.198;2023-03-29T08:30:57;2.97;;;1.05;;
58669;SDS011;44439;47.924;10.198;2023-03-29T08:33:44;1.42;;;0.70;;
58669;SDS011;44439;47.924;10.198;2023-03-29T08:36:30;2.00;;;0.75;;
58669;SDS011;44439;47.924;10.198;2023-03-29T08:39:26;3.00;;;0.85;;
58669;SDS011;44439;47.924;10.198;2023-03-29T08:45:29;2.10;;;0.90;;
58669;SDS011;44439;47.924;10.198;2023-03-29T08:51:16;2.60;;;1.20;;
58669;SDS011;44439;47.924;10.198;2023-03-29T08:54:15;3.05;;;1.05;;
58669;SDS011;44439;47.924;10.198;2023-03-29T08:57:13;3.22;;;0.73;;
58669;SDS011;44439;47.924;10.198;2023-03-29T09:00:03;3.72;;;1.38;;
58669;SDS011;44439;47.924;10.198;2023-03-29T09:02:50;2.85;;;0.75;;
58669;SDS011;44439;47.924;10.198;2023-03-29T09:05:39;1.67;;;0.68;;
58669;SDS011;44439;47.924;10.198;2023-03-29T09:08:28;2.83;;;0.80;;
58669;SDS011;44439;47.924;10.198;2023-03-29T09:14:25;2.22;;;0.80;;
58669;SDS011;44439;47.924;10.198;2023-03-29T09:17:26;2.95;;;0.88;;
58669;SDS011;44439;47.924;10.198;2023-03-29T09:20:21;3.78;;;1.00;;
58669;SDS011;44439;47.924;10.198;2023-03-29T09:23:16;1.10;;;0.90;;
58669;SDS011;44439;47.924;10.198;2023-03-29T09:29:24;2.70;;;0.88;;
58669;SDS011;44439;47.924;10.198;2023-03-29T09:32:21;2.63;;;0.75;;
58669;SDS011;44439;47.924;10.198;2023-03-29T09:35:10;2.13;;;0.98;;
58669;SDS011;44439;47.924;10.198;2023-03-29T09:38:03;9.27;;;1.85;;
58669;SDS011;44439;47.924;10.198;2023-03-29T09:40:51;1.50;;;0.60;;
58669;SDS011;44439;47.924;10.198;2023-03-29T09:43:40;3.92;;;0.77;;
58669;SDS011;44439;47.924;10.198;2023-03-29T09:46:38;1.13;;;0.70;;
58669;SDS011;44439;47.924;10.198;2023-03-29T09:49:26;1.70;;;0.65;;
58669;SDS011;44439;47.924;10.198;2023-03-29T09:52:13;3.58;;;0.88;;
58669;SDS011;44439;47.924;10.198;2023-03-29T09:55:01;3.13;;;0.70;;
58669;SDS011;44439;47.924;10.198;2023-03-29T09:57:48;1.23;;;0.50;;
58669;SDS011;44439;47.924;10.198;2023-03-29T10:00:34;2.40;;;1.05;;
58669;SDS011;44439;47.924;10.198;2023-03-29T10:03:21;1.70;;;0.88;;
58669;SDS011;44439;47.924;10.198;2023-03-29T10:06:09;3.38;;;0.75;;
58669;SDS011;44439;47.924;10.198;2023-03-29T10:08:56;3.35;;;1.20;;
58669;SDS011;44439;47.924;10.198;2023-03-29T10:11:45;3.72;;;1.23;;
58669;SDS011;44439;47.924;10.198;2023-03-29T10:17:22;2.58;;;0.90;;
58669;SDS011;44439;47.924;10.198;2023-03-29T10:20:12;1.33;;;1.00;;
58669;SDS011;44439;47.924;10.198;2023-03-29T10:23:04;5.30;;;0.90;;
58669;SDS011;44439;47.924;10.198;2023-03-29T10:25:51;4.35;;;0.75;;
58669;SDS011;44439;47.924;10.198;2023-03-29T10:28:37;2.30;;;0.90;;
58669;SDS011;44439;47.924;10.198;2023-03-29T10:31:23;2.80;;;1.10;;
58669;SDS011;44439;47.924;10.198;2023-03-29T10:34:09;2.83;;;1.00;;
58669;SDS011;44439;47.924;10.198;2023-03-29T10:36:57;2.78;;;0.82;;
58669;SDS011;44439;47.924;10.198;2023-03-29T10:39:45;1.52;;;0.70;;
58669;SDS011;44439;47.924;10.198;2023-03-29T10:42:31;2.92;;;0.80;;
58669;SDS011;44439;47.924;10.198;2023-03-29T10:45:39;2.00;;;0.88;;
58669;SDS011;44439;47.924;10.198;2023-03-29T10:48:27;3.58;;;0.93;;
58669;SDS011;44439;47.924;10.198;2023-03-29T10:51:14;5.13;;;0.75;;
58669;SDS011;44439;47.924;10.198;2023-03-29T10:54:02;4.22;;;1.17;;
58669;SDS011;44439;47.924;10.198;2023-03-29T10:56:49;3.08;;;0.77;;
58669;SDS011;44439;47.924;10.198;2023-03-29T11:02:52;3.50;;;0.95;;
58669;SDS011;44439;47.924;10.198;2023-03-29T11:05:46;2.20;;;0.80;;
58669;SDS011;44439;47.924;10.198;2023-03-29T11:21:02;5.35;;;1.27;;
58669;SDS011;44439;47.924;10.198;2023-03-29T11:30:32;3.63;;;0.88;;
58669;SDS011;44439;47.924;10.198;2023-03-29T11:33:50;2.63;;;0.77;;
58669;SDS011;44439;47.924;10.198;2023-03-29T11:36:56;2.50;;;0.80;;
58669;SDS011;44439;47.924;10.198;2023-03-29T11:43:03;1.98;;;0.68;;
58669;SDS011;44439;47.924;10.198;2023-03-29T11:57:50;2.60;;;0.82;;
58669;SDS011;44439;47.924;10.198;2023-03-29T12:00:52;4.55;;;0.82;;
58669;SDS011;44439;47.924;10.198;2023-03-29T12:03:52;4.63;;;0.95;;
58669;SDS011;44439;47.924;10.198;2023-03-29T12:09:49;4.03;;;1.02;;
58669;SDS011;44439;47.924;10.198;2023-03-29T12:15:32;2.97;;;0.73;;
58669;SDS011;44439;47.924;10.198;2023-03-29T12:21:12;5.82;;;0.95;;
58669;SDS011;44439;47.924;10.198;2023-03-29T12:24:01;5.20;;;0.90;;
58669;SDS011;44439;47.924;10.198;2023-03-29T12:39:13;3.42;;;1.13;;
58669;SDS011;44439;47.924;10.198;2023-03-29T12:45:20;6.45;;;1.30;;
58669;SDS011;44439;47.924;10.198;2023-03-29T12:48:17;1.70;;;0.98;;
58669;SDS011;44439;47.924;10.198;2023-03-29T12:51:12;3.95;;;1.10;;
58669;SDS011;44439;47.924;10.198;2023-03-29T12:54:21;4.65;;;1.27;;
58669;SDS011;44439;47.924;10.198;2023-03-29T12:57:19;4.28;;;1.13;;
58669;SDS011;44439;47.924;10.198;2023-03-29T13:03:21;3.90;;;1.35;;
58669;SDS011;44439;47.924;10.198;2023-03-29T13:06:08;3.33;;;1.05;;
58669;SDS011;44439;47.924;10.198;2023-03-29T13:08:59;3.35;;;1.20;;
58669;SDS011;44439;47.924;10.198;2023-03-29T13:11:52;5.72;;;1.23;;
58669;SDS011;44439;47.924;10.198;2023-03-29T13:14:42;3.83;;;1.02;;
58669;SDS011;44439;47.924;10.198;2023-03-29T13:20:40;7.90;;;1.60;;
58669;SDS011;44439;47.924;10.198;2023-03-29T13:23:34;7.68;;;2.90;;
58669;SDS011;44439;47.924;10.198;2023-03-29T13:32:31;6.80;;;2.70;;
58669;SDS011;44439;47.924;10.198;2023-03-29T13:38:20;8.40;;;2.97;;
58669;SDS011;44439;47.924;10.198;2023-03-29T13:44:25;6.10;;;1.63;;
58669;SDS011;44439;47.924;10.198;2023-03-29T13:47:26;3.95;;;1.17;;
58669;SDS011;44439;47.924;10.198;2023-03-29T13:50:18;6.68;;;1.50;;
58669;SDS011;44439;47.924;10.198;2023-03-29T13:53:14;6.05;;;1.63;;
58669;SDS011;44439;47.924;10.198;2023-03-29T13:56:09;6.78;;;1.85;;
58669;SDS011;44439;47.924;10.198;2023-03-29T14:02:43;3.53;;;1.33;;
58669;SDS011;44439;47.924;10.198;2023-03-29T14:05:36;6.37;;;1.60;;
58669;SDS011;44439;47.924;10.198;2023-03-29T14:08:28;8.70;;;1.63;;
58669;SDS011;44439;47.924;10.198;2023-03-29T14:11:36;5.47;;;1.20;;
58669;SDS011;44439;47.924;10.198;2023-03-29T14:14:24;2.15;;;0.90;;
58669;SDS011;44439;47.924;10.198;2023-03-29T14:17:17;5.78;;;2.08;;
58669;SDS011;44439;47.924;10.198;2023-03-29T14:20:05;3.53;;;1.00;;
58669;SDS011;44439;47.924;10.198;2023-03-29T14:22:53;4.75;;;1.63;;
58669;SDS011;44439;47.924;10.198;2023-03-29T14:25:40;7.00;;;2.00;;
58669;SDS011;44439;47.924;10.198;2023-03-29T14:28:27;5.22;;;1.63;;
58669;SDS011;44439;47.924;10.198;2023-03-29T14:31:20;4.32;;;1.10;;
58669;SDS011;44439;47.924;10.198;2023-03-29T14:34:12;4.82;;;1.40;;
58669;SDS011;44439;47.924;10.198;2023-03-29T14:37:00;4.90;;;1.00;;
58669;SDS011;44439;47.924;10.198;2023-03-29T14:39:46;5.95;;;0.98;;
58669;SDS011;44439;47.924;10.198;2023-03-29T14:42:33;4.90;;;1.65;;
58669;SDS011;44439;47.924;10.198;2023-03-29T14:45:21;5.78;;;1.67;;
58669;SDS011;44439;47.924;10.198;2023-03-29T14:48:09;5.35;;;1.60;;
58669;SDS011;44439;47.924;10.198;2023-03-29T14:50:57;4.43;;;1.92;;
58669;SDS011;44439;47.924;10.198;2023-03-29T14:53:43;4.00;;;2.15;;
58669;SDS011;44439;47.924;10.198;2023-03-29T14:56:29;4.47;;;1.25;;
58669;SDS011;44439;47.924;10.198;2023-03-29T14:59:22;3.33;;;1.45;;
58669;SDS011;44439;47.924;10.198;2023-03-29T15:05:24;5.25;;;1.23;;
58669;SDS011;44439;47.924;10.198;2023-03-29T15:08:14;5.93;;;1.88;;
58669;SDS011;44439;47.924;10.198;2023-03-29T15:11:09;4.33;;;1.03;;
58669;SDS011;44439;47.924;10.198;2023-03-29T15:14:02;6.72;;;1.98;;
58669;SDS011;44439;47.924;10.198;2023-03-29T15:16:49;6.13;;;1.30;;
58669;SDS011;44439;47.924;10.198;2023-03-29T15:19:36;5.97;;;1.40;;
58669;SDS011;44439;47.924;10.198;2023-03-29T15:22:22;7.93;;;1.75;;
58669;SDS011;44439;47.924;10.198;2023-03-29T15:25:13;3.80;;;1.20;;
58669;SDS011;44439;47.924;10.198;2023-03-29T15:28:01;8.05;;;1.63;;
58669;SDS011;44439;47.924;10.198;2023-03-29T15:30:47;4.53;;;1.10;;
58669;SDS011;44439;47.924;10.198;2023-03-29T15:36:20;7.63;;;1.38;;
58669;SDS011;44439;47.924;10.198;2023-03-29T15:39:09;3.97;;;1.23;;
58669;SDS011;44439;47.924;10.198;2023-03-29T15:42:01;2.83;;;1.38;;
58669;SDS011;44439;47.924;10.198;2023-03-29T15:44:47;8.30;;;1.58;;
58669;SDS011;44439;47.924;10.198;2023-03-29T15:47:32;5.78;;;1.10;;
58669;SDS011;44439;47.924;10.198;2023-03-29T15:50:18;6.15;;;1.50;;
58669;SDS011;44439;47.924;10.198;2023-03-29T15:53:03;5.60;;;2.08;;
58669;SDS011;44439;47.924;10.198;2023-03-29T15:55:50;8.60;;;1.73;;
58669;SDS011;44439;47.924;10.198;2023-03-29T15:58:36;5.88;;;1.48;;
58669;SDS011;44439;47.924;10.198;2023-03-29T16:01:32;8.10;;;3.53;;
58669;SDS011;44439;47.924;10.198;2023-03-29T16:04:21;5.22;;;1.50;;
58669;SDS011;44439;47.924;10.198;2023-03-29T16:07:14;4.15;;;1.70;;
58669;SDS011;44439;47.924;10.198;2023-03-29T16:10:01;5.65;;;1.58;;
58669;SDS011;44439;47.924;10.198;2023-03-29T16:12:46;4.90;;;1.23;;
58669;SDS011;44439;47.924;10.198;2023-03-29T16:15:32;4.43;;;1.67;;
58669;SDS011;44439;47.924;10.198;2023-03-29T16:18:20;7.18;;;1.70;;
58669;SDS011;44439;47.924;10.198;2023-03-29T16:21:07;6.00;;;1.77;;
58669;SDS011;44439;47.924;10.198;2023-03-29T16:23:56;6.03;;;1.80;;
58669;SDS011;44439;47.924;10.198;2023-03-29T16:26:41;6.72;;;1.50;;
58669;SDS011;44439;47.924;10.198;2023-03-29T16:29:27;5.47;;;1.27;;
58669;SDS011;44439;47.924;10.198;2023-03-29T16:32:13;4.95;;;1.33;;
58669;SDS011;44439;47.924;10.198;2023-03-29T16:34:59;5.13;;;1.63;;
58669;SDS011;44439;47.924;10.198;2023-03-29T16:37:44;10.73;;;3.75;;
58669;SDS011;44439;47.924;10.198;2023-03-29T16:40:31;8.05;;;1.88;;
58669;SDS011;44439;47.924;10.198;2023-03-29T16:43:17;6.60;;;3.10;;
58669;SDS011;44439;47.924;10.198;2023-03-29T16:46:03;7.75;;;2.72;;
58669;SDS011;44439;47.924;10.198;2023-03-29T16:48:52;6.50;;;2.50;;
58669;SDS011;44439;47.924;10.198;2023-03-29T16:51:38;6.63;;;2.10;;
58669;SDS011;44439;47.924;10.198;2023-03-29T16:54:26;6.13;;;2.90;;
58669;SDS011;44439;47.924;10.198;2023-03-29T16:57:13;9.88;;;3.28;;
58669;SDS011;44439;47.924;10.198;2023-03-29T16:59:59;9.77;;;3.10;;
58669;SDS011;44439;47.924;10.198;2023-03-29T17:02:45;10.80;;;4.97;;
58669;SDS011;44439;47.924;10.198;2023-03-29T17:05:33;5.53;;;1.80;;
58669;SDS011;44439;47.924;10.198;2023-03-29T17:08:25;10.10;;;1.88;;
58669;SDS011;44439;47.924;10.198;2023-03-29T17:11:11;7.45;;;1.90;;
58669;SDS011;44439;47.924;10.198;2023-03-29T17:13:57;7.25;;;1.67;;
58669;SDS011;44439;47.924;10.198;2023-03-29T17:16:42;5.35;;;1.50;;
58669;SDS011;44439;47.924;10.198;2023-03-29T17:19:28;8.68;;;2.10;;
58669;SDS011;44439;47.924;10.198;2023-03-29T17:22:14;6.07;;;1.45;;
58669;SDS011;44439;47.924;10.198;2023-03-29T17:25:00;8.05;;;1.52;;
58669;SDS011;44439;47.924;10.198;2023-03-29T17:27:48;9.10;;;2.70;;
58669;SDS011;44439;47.924;10.198;2023-03-29T17:30:34;6.88;;;2.60;;
58669;SDS011;44439;47.924;10.198;2023-03-29T17:33:21;7.68;;;3.10;;
58669;SDS011;44439;47.924;10.198;2023-03-29T17:36:10;9.23;;;2.00;;
58669;SDS011;44439;47.924;10.198;2023-03-29T17:38:55;6.53;;;2.47;;
58669;SDS011;44439;47.924;10.198;2023-03-29T17:41:45;7.28;;;1.70;;
58669;SDS011;44439;47.924;10.198;2023-03-29T17:44:31;6.78;;;1.75;;
58669;SDS011;44439;47.924;10.198;2023-03-29T17:47:17;6.75;;;2.05;;
58669;SDS011;44439;47.924;10.198;2023-03-29T17:50:03;3.88;;;1.50;;
58669;SDS011;44439;47.924;10.198;2023-03-29T17:52:50;6.40;;;1.95;;
58669;SDS011;44439;47.924;10.198;2023-03-29T17:55:39;5.95;;;1.95;;
58669;SDS011;44439;47.924;10.198;2023-03-29T17:58:25;4.65;;;1.70;;
58669;SDS011;44439;47.924;10.198;2023-03-29T18:01:11;12.90;;;1.70;;
58669;SDS011;44439;47.924;10.198;2023-03-29T18:03:58;6.00;;;1.48;;
58669;SDS011;44439;47.924;10.198;2023-03-29T18:06:44;5.80;;;1.60;;
58669;SDS011;44439;47.924;10.198;2023-03-29T18:09:30;5.25;;;1.13;;
58669;SDS011;44439;47.924;10.198;2023-03-29T18:12:15;5.28;;;2.50;;
58669;SDS011;44439;47.924;10.198;2023-03-29T18:15:02;6.18;;;1.55;;
58669;SDS011;44439;47.924;10.198;2023-03-29T18:17:47;5.93;;;1.52;;
58669;SDS011;44439;47.924;10.198;2023-03-29T18:20:33;7.50;;;1.92;;
58669;SDS011;44439;47.924;10.198;2023-03-29T18:23:19;6.93;;;2.38;;
58669;SDS011;44439;47.924;10.198;2023-03-29T18:26:05;7.00;;;1.95;;
58669;SDS011;44439;47.924;10.198;2023-03-29T18:28:51;8.18;;;2.03;;
58669;SDS011;44439;47.924;10.198;2023-03-29T18:31:37;6.80;;;2.47;;
58669;SDS011;44439;47.924;10.198;2023-03-29T18:34:23;2.63;;;1.45;;